Carlsbad Caverns National Park, NM

12:54 PM MST on November 23, 2014 (GMT -0700)
KNMCARLS3 | Change Station
CLOSE
Current Station
Personal Weather Station
Location: Carlsbad, NM
Elevation: 3158 ft
Nearby Weather Stations
Active Advisory: Wind Advisory

Elev 3158 ft 32.43 °N, 104.25 °W | Updated 3 seconds ago

Clear
Clear
70.5 °F
Feels Like 74 °F
N
8.0
Wind Variable Wind from WSW
Gusts 24.0 mph

Today
High -- | Low -- °F
--% Chance of Precip.
Yesterday
High -- | Low -- °F
Precip. -- in
6:33 AM 4:52 PM
New Moon, 2% visible
Pressure 29.55 in
Visibility 10.0 miles
Clouds Clear
Heat Index 74 °F
Dew Point 26 °F
Humidity 19%
Rainfall 0.00 in
Snow Depth Not available.
UV 5 out of 12
Pollen 6.60 out of 12
Air Quality Not available.
Flu Activity Not available.
METAR KCNM 231853Z AUTO 28026G39KT 10SM CLR 21/M06 A2967 RMK AO2 PK WND 27042/1811 SLP005 T02111056

More Conditions Fewer Conditions

Pressure 29.55 in
Visibility 10.0 miles
Clouds Clear
Heat Index 74 °F
Dew Point 26 °F
Humidity 19%
Rainfall 0.00 in
Snow Depth Not available.
UV 5 out of 12
Pollen 6.60 out of 12
Air Quality Not available.
Flu Activity Not available.
METAR KCNM 231853Z AUTO 28026G39KT 10SM CLR 21/M06 A2967 RMK AO2 PK WND 27042/1811 SLP005 T02111056

More Conditions Fewer Conditions

10-Day Weather Forecast

Almanac

Astronomy

Nov. 23, 2014 Rise Set
Actual Time
Civil Twilight
Nautical Twilight
Astronomical Twilight
Moon
Length of Visible Light
Length of Day
Tomorrow will be .
, % of the Moon is Illuminated

Today's Extremes

State Highs State Lows

Community

WunderPhotos

Upload Photos

1,773,161 photos uploaded!

WunderBlogs® & News

Nearby

Air Quality

  Air Quality AQ Index Pollutant
Not available.

Snow Depth

Station Depth Elevation

Earthquake Activity

City Distance Mag. Time & Date
Minimum magnitude displayed is 2.5.

Coastal Water Temperatures

Place Temperature

Nearby Weather Stations